createdAt,value
2023-02-13T00:02:05.959Z,101686.16
2023-02-13T00:04:34.637Z,101692.75
2023-02-13T00:07:02.932Z,101694.47
2023-02-13T00:09:31.073Z,101690.81
2023-02-13T00:11:59.104Z,101705.00
2023-02-13T00:14:28.581Z,101707.81
2023-02-13T00:16:56.762Z,101714.78
2023-02-13T00:19:24.976Z,101707.81
2023-02-13T00:21:53.058Z,101719.44
2023-02-13T00:24:21.242Z,101712.09
2023-02-13T00:26:49.308Z,101717.47
2023-02-13T00:29:17.828Z,101708.22
2023-02-13T00:31:47.452Z,101715.88
2023-02-13T00:34:15.714Z,101717.47
2023-02-13T00:36:43.918Z,101709.78
2023-02-13T00:39:13.201Z,101700.38
2023-02-13T00:41:41.890Z,101701.59
2023-02-13T00:44:10.518Z,101703.31
2023-02-13T00:46:38.983Z,101698.88
2023-02-13T00:49:08.515Z,101700.94
2023-02-13T00:51:36.841Z,101697.28
2023-02-13T00:54:05.144Z,101690.19
2023-02-13T00:56:33.545Z,101692.75
2023-02-13T00:59:01.729Z,101686.78
2023-02-13T01:01:30.003Z,101683.44
2023-02-13T01:03:58.281Z,101686.13
2023-02-13T01:06:27.866Z,101686.38
2023-02-13T01:08:55.947Z,101680.75
2023-02-13T01:11:24.014Z,101682.72
2023-02-13T01:13:52.117Z,101679.91
2023-02-13T01:16:22.021Z,101696.16
2023-02-13T01:18:50.450Z,101693.47
2023-02-13T01:21:19.458Z,101702.06
2023-02-13T01:23:49.486Z,101698.00
2023-02-13T01:26:22.864Z,101696.19
2023-02-13T01:28:53.606Z,101699.84
2023-02-13T01:31:22.018Z,101697.69
2023-02-13T01:33:51.804Z,101689.50
2023-02-13T01:36:23.170Z,101705.50
2023-02-13T01:38:55.563Z,101703.91
2023-02-13T01:41:25.847Z,101692.06
2023-02-13T01:43:54.946Z,101701.22
2023-02-13T01:46:26.065Z,101695.47
2023-02-13T01:48:55.953Z,101693.28
2023-02-13T01:51:26.272Z,101685.59
2023-02-13T01:53:59.951Z,101689.25
2023-02-13T01:56:30.882Z,101681.53
2023-02-13T01:59:01.190Z,101682.28
2023-02-13T02:01:29.915Z,101677.84
2023-02-13T02:03:59.972Z,101662.97
2023-02-13T02:06:33.661Z,101674.44
2023-02-13T02:09:06.824Z,101664.75
2023-02-13T02:11:37.374Z,101661.00
2023-02-13T02:14:06.332Z,101658.31
2023-02-13T02:16:37.919Z,101663.91
2023-02-13T02:19:07.238Z,101667.09
2023-02-13T02:21:54.842Z,101661.97
2023-02-13T02:24:42.029Z,101658.53
2023-02-13T02:27:26.907Z,101660.75
2023-02-13T02:30:12.877Z,101660.03
2023-02-13T02:32:52.537Z,101657.22
2023-02-13T02:35:27.878Z,101658.53
2023-02-13T02:38:06.629Z,101652.41
2023-02-13T02:40:39.849Z,101647.03
2023-02-13T02:43:15.460Z,101647.28
2023-02-13T02:45:50.600Z,101642.88
2023-02-13T02:48:41.123Z,101642.88
2023-02-13T02:51:13.621Z,101651.28
2023-02-13T02:53:45.469Z,101642.50
2023-02-13T02:56:15.904Z,101643.34
2023-02-13T02:59:04.895Z,101633.47
2023-02-13T03:01:53.272Z,101634.03
2023-02-13T03:04:58.206Z,101632.22
2023-02-13T03:07:26.302Z,101632.66
2023-02-13T03:10:14.821Z,101639.78
2023-02-13T03:13:04.343Z,101636.97
2023-02-13T03:15:32.977Z,101627.41
2023-02-13T03:18:18.413Z,101627.41
2023-02-13T03:21:08.270Z,101625.81
2023-02-13T03:23:45.131Z,101628.63
2023-02-13T03:26:45.641Z,101623.47
2023-02-13T03:29:36.183Z,101620.28
2023-02-13T03:32:09.442Z,101612.97
2023-02-13T03:34:55.638Z,101614.91
2023-02-13T03:37:45.947Z,101609.75
2023-02-13T03:40:17.130Z,101604.91
2023-02-13T03:42:48.602Z,101619.41
2023-02-13T03:45:37.558Z,101609.53
2023-02-13T03:48:27.402Z,101616.25
2023-02-13T03:50:54.884Z,101594.38
2023-02-13T03:53:25.790Z,101601.22
2023-02-13T03:56:12.498Z,101593.88
2023-02-13T03:59:01.640Z,101596.06
2023-02-13T04:01:31.998Z,101593.72
2023-02-13T04:04:03.740Z,101601.03
2023-02-13T04:06:33.931Z,101596.88
2023-02-13T04:09:03.444Z,101585.16
2023-02-13T04:11:34.470Z,101587.97
2023-02-13T04:14:05.006Z,101593.53
2023-02-13T04:16:35.335Z,101595.50
2023-02-13T04:19:04.063Z,101592.09
2023-02-13T04:21:34.331Z,101584.13
2023-02-13T04:24:04.069Z,101587.91
2023-02-13T04:26:36.594Z,101580.59
2023-02-13T04:29:05.212Z,101572.75
2023-02-13T04:31:33.569Z,101573.72
2023-02-13T04:34:02.061Z,101579.44
2023-02-13T04:36:30.346Z,101576.66
2023-02-13T04:38:58.468Z,101567.63
2023-02-13T04:41:27.949Z,101582.03
2023-02-13T04:43:55.973Z,101573.00
2023-02-13T04:46:24.090Z,101562.25
2023-02-13T04:48:52.358Z,101562.25
2023-02-13T04:51:20.480Z,101566.84
2023-02-13T04:53:48.709Z,101549.78
2023-02-13T04:56:18.497Z,101545.25
2023-02-13T04:58:49.177Z,101545.72
2023-02-13T05:01:17.872Z,101543.88
2023-02-13T05:03:46.372Z,101552.06
2023-02-13T05:06:14.586Z,101552.59
2023-02-13T05:08:42.731Z,101550.25
2023-02-13T05:11:10.798Z,101557.44
2023-02-13T05:13:38.982Z,101558.31
2023-02-13T05:16:08.887Z,101561.97
2023-02-13T05:18:37.028Z,101552.94
2023-02-13T05:21:22.843Z,101548.53
2023-02-13T05:23:51.011Z,101548.53
2023-02-13T05:26:19.150Z,101553.06
2023-02-13T05:29:04.562Z,101544.88
2023-02-13T05:31:34.563Z,101544.66
2023-02-13T05:34:02.622Z,101541.00
2023-02-13T05:36:30.698Z,101541.00
2023-02-13T05:38:58.951Z,101537.94
2023-02-13T05:41:27.099Z,101554.06
2023-02-13T05:43:55.286Z,101551.03
2023-02-13T05:46:23.665Z,101553.00
2023-02-13T05:48:53.766Z,101552.28
2023-02-13T05:51:21.876Z,101553.22
2023-02-13T05:53:50.021Z,101550.34
2023-02-13T05:56:18.117Z,101551.78
2023-02-13T05:58:46.385Z,101542.75
2023-02-13T06:01:14.861Z,101547.91
2023-02-13T06:03:42.954Z,101558.78
2023-02-13T06:06:12.473Z,101554.28
2023-02-13T06:08:40.817Z,101551.09
2023-02-13T06:11:08.985Z,101557.31
2023-02-13T06:13:40.664Z,101553.44
2023-02-13T06:16:09.657Z,101558.34
2023-02-13T06:18:37.760Z,101557.22
2023-02-13T06:21:06.237Z,101559.91
2023-02-13T06:23:35.741Z,101558.94
2023-02-13T06:26:04.866Z,101565.09
2023-02-13T06:28:33.462Z,101565.81
2023-02-13T06:31:02.257Z,101562.16
2023-02-13T06:33:30.541Z,101565.81
2023-02-13T06:35:59.303Z,101560.44
2023-02-13T06:38:27.493Z,101549.03
2023-02-13T06:41:00.849Z,101557.03
2023-02-13T06:43:29.044Z,101548.84
2023-02-13T06:45:57.367Z,101548.19
2023-02-13T06:48:25.555Z,101542.81
2023-02-13T06:50:53.766Z,101546.34
2023-02-13T06:53:25.034Z,101541.09
2023-02-13T06:55:54.393Z,101535.97
2023-02-13T06:58:24.841Z,101538.91
2023-02-13T07:00:53.430Z,101536.69
2023-02-13T07:03:21.492Z,101540.34
2023-02-13T07:05:52.111Z,101547.06
2023-02-13T07:08:20.342Z,101539.59
2023-02-13T07:10:48.370Z,101535.47
2023-02-13T07:13:16.574Z,101543.72
2023-02-13T07:15:46.195Z,101540.84
2023-02-13T07:18:14.606Z,101549.84
2023-02-13T07:20:42.733Z,101547.16
2023-02-13T07:23:11.576Z,101553.50
2023-02-13T07:25:39.772Z,101551.69
2023-02-13T07:28:08.293Z,101560.09
2023-02-13T07:30:36.752Z,101564.91
2023-02-13T07:33:06.882Z,101559.00
2023-02-13T07:35:36.288Z,101560.22
2023-02-13T07:38:04.541Z,101562.78
2023-02-13T07:40:32.859Z,101566.47
2023-02-13T07:43:02.089Z,101566.66
2023-02-13T07:45:30.143Z,101575.72
2023-02-13T07:47:58.536Z,101575.97
2023-02-13T07:50:28.614Z,101585.13
2023-02-13T07:52:57.034Z,101576.16
2023-02-13T07:55:25.183Z,101576.16
2023-02-13T07:57:53.529Z,101568.00
2023-02-13T08:00:22.205Z,101566.41
2023-02-13T08:02:50.451Z,101568.47
2023-02-13T08:05:18.521Z,101562.25
2023-02-13T08:07:48.684Z,101571.75
2023-02-13T08:10:34.363Z,101574.66
2023-02-13T08:13:02.999Z,101567.34
2023-02-13T08:15:31.040Z,101577.13
2023-02-13T08:17:59.202Z,101574.31
2023-02-13T08:20:27.855Z,101574.19
2023-02-13T08:23:04.075Z,101581.28
2023-02-13T08:25:32.263Z,101574.91
2023-02-13T08:28:00.550Z,101582.25
2023-02-13T08:30:28.943Z,101579.56
2023-02-13T08:32:57.169Z,101581.28
2023-02-13T08:35:32.537Z,101562.69
2023-02-13T08:38:04.346Z,101582.25
2023-02-13T08:40:32.496Z,101584.19
2023-02-13T08:43:01.802Z,101587.63
2023-02-13T08:45:30.388Z,101587.63
2023-02-13T08:47:59.228Z,101595.56
2023-02-13T08:50:27.916Z,101582.78
2023-02-13T08:52:57.118Z,101584.47
2023-02-13T08:55:26.998Z,101588.66
2023-02-13T08:57:55.411Z,101588.53
2023-02-13T09:00:23.579Z,101593.34
2023-02-13T09:02:52.094Z,101594.78
2023-02-13T09:05:21.150Z,101598.00
2023-02-13T09:07:49.393Z,101589.47
2023-02-13T09:10:17.480Z,101593.50
2023-02-13T09:12:52.953Z,101595.25
2023-02-13T09:15:21.122Z,101588.94
2023-02-13T09:17:49.151Z,101597.88
2023-02-13T09:20:19.249Z,101587.25
2023-02-13T09:22:47.457Z,101589.59
2023-02-13T09:25:15.550Z,101579.53
2023-02-13T09:27:43.669Z,101574.16
2023-02-13T09:30:23.138Z,101574.66
2023-02-13T09:32:51.799Z,101580.75
2023-02-13T09:35:19.946Z,101568.06
2023-02-13T09:37:48.604Z,101565.59
2023-02-13T09:40:22.275Z,101559.44
2023-02-13T09:42:51.170Z,101549.63
2023-02-13T09:45:21.930Z,101536.81
2023-02-13T09:47:50.296Z,101539.47
2023-02-13T09:50:22.505Z,101533.06
2023-02-13T09:52:51.996Z,101525.59
2023-02-13T09:55:21.026Z,101514.03
2023-02-13T09:57:54.509Z,101512.53
2023-02-13T10:00:27.724Z,101509.53
2023-02-13T10:03:07.509Z,101506.41
2023-02-13T10:05:43.880Z,101495.28
2023-02-13T10:08:19.603Z,101483.75
2023-02-13T10:10:52.388Z,101483.78
2023-02-13T10:13:31.113Z,101484.06
2023-02-13T10:16:04.999Z,101480.16
2023-02-13T10:18:39.329Z,101477.44
2023-02-13T10:21:08.993Z,101470.72
2023-02-13T10:23:40.694Z,101472.00
2023-02-13T10:26:13.220Z,101480.97
2023-02-13T10:28:43.561Z,101479.66
2023-02-13T10:31:15.478Z,101484.00
2023-02-13T10:33:48.059Z,101483.03
2023-02-13T10:36:18.369Z,101479.06
2023-02-13T10:38:49.595Z,101488.09
2023-02-13T10:41:24.459Z,101475.41
2023-02-13T10:44:00.410Z,101489.66
2023-02-13T10:46:35.291Z,101481.94
2023-02-13T10:49:21.274Z,101489.88
2023-02-13T10:51:53.018Z,101473.72
2023-02-13T10:54:26.492Z,101481.09
2023-02-13T10:56:59.741Z,101483.78
2023-02-13T10:59:41.475Z,101486.78
2023-02-13T11:02:21.698Z,101487.34
2023-02-13T11:04:50.747Z,101499.59
2023-02-13T11:07:21.207Z,101499.19
2023-02-13T11:09:50.682Z,101496.03
2023-02-13T11:12:25.824Z,101494.75
2023-02-13T11:14:57.776Z,101496.31
2023-02-13T11:17:28.322Z,101496.59
2023-02-13T11:19:57.520Z,101491.94
2023-02-13T11:22:31.218Z,101485.94
2023-02-13T11:25:00.731Z,101497.31
2023-02-13T11:27:31.804Z,101494.03
2023-02-13T11:30:02.159Z,101483.94
2023-02-13T11:32:33.781Z,101487.19
2023-02-13T11:35:17.749Z,101491.63
2023-02-13T11:37:46.049Z,101483.81
2023-02-13T11:40:30.072Z,101493.91
2023-02-13T11:42:58.261Z,101485.66
2023-02-13T11:45:27.163Z,101504.72
2023-02-13T11:47:57.911Z,101503.28
2023-02-13T11:50:27.310Z,101498.16
2023-02-13T11:52:57.736Z,101488.47
2023-02-13T11:55:27.578Z,101476.69
2023-02-13T11:57:59.962Z,101477.13
2023-02-13T12:00:31.083Z,101476.66
2023-02-13T12:03:00.881Z,101479.34
2023-02-13T12:05:29.524Z,101484.75
2023-02-13T12:07:59.983Z,101485.66
2023-02-13T12:10:29.605Z,101474.53
2023-02-13T12:12:59.104Z,101467.59
2023-02-13T12:15:28.220Z,101471.13
2023-02-13T12:18:12.314Z,101467.16
2023-02-13T12:20:49.906Z,101471.00
2023-02-13T12:23:24.456Z,101463.16
2023-02-13T12:26:03.002Z,101468.00
2023-02-13T12:28:39.674Z,101469.41
2023-02-13T12:31:29.182Z,101470.84
2023-02-13T12:34:16.300Z,101459.47
2023-02-13T12:36:48.594Z,101469.13
2023-02-13T12:39:25.791Z,101456.34
2023-02-13T12:42:02.277Z,101459.75
2023-02-13T12:44:41.561Z,101463.41
2023-02-13T12:47:17.631Z,101462.53
2023-02-13T12:50:07.001Z,101461.41
2023-02-13T12:52:46.043Z,101470.78
2023-02-13T12:55:32.316Z,101459.59
2023-02-13T12:58:08.860Z,101460.03
2023-02-13T13:00:43.014Z,101435.88
2023-02-13T13:03:21.269Z,101449.25
2023-02-13T13:06:10.506Z,101440.84
2023-02-13T13:08:59.902Z,101437.28
2023-02-13T13:11:45.826Z,101439.56
2023-02-13T13:14:19.146Z,101440.72
2023-02-13T13:16:50.451Z,101436.13
2023-02-13T13:19:25.820Z,101432.88
2023-02-13T13:21:56.816Z,101429.88
2023-02-13T13:24:31.938Z,101432.16
2023-02-13T13:27:02.098Z,101427.03
2023-02-13T13:29:44.330Z,101416.47
2023-02-13T13:32:16.021Z,101422.31
2023-02-13T13:34:44.509Z,101412.78
2023-02-13T13:37:17.635Z,101405.69
2023-02-13T13:39:49.587Z,101397.44
2023-02-13T13:42:22.010Z,101384.78
2023-02-13T13:45:05.295Z,101395.72
2023-02-13T13:47:49.712Z,101380.78
2023-02-13T13:50:22.720Z,101382.78
2023-02-13T13:53:11.595Z,101390.59
2023-02-13T13:55:58.479Z,101397.44
2023-02-13T13:58:34.280Z,101395.88
2023-02-13T14:01:20.435Z,101396.03
2023-02-13T14:03:49.500Z,101394.88
2023-02-13T14:06:18.594Z,101390.44
2023-02-13T14:08:57.601Z,101381.78
2023-02-13T14:11:30.795Z,101372.72
2023-02-13T14:14:00.564Z,101380.09
2023-02-13T14:16:39.027Z,101364.16
2023-02-13T14:19:08.027Z,101361.78
2023-02-13T14:21:36.050Z,101359.94
2023-02-13T14:24:12.521Z,101357.25
2023-02-13T14:26:41.747Z,101359.81
2023-02-13T14:29:30.766Z,101355.25
2023-02-13T14:32:05.409Z,101359.38
2023-02-13T14:34:35.244Z,101370.59
2023-02-13T14:37:17.254Z,101368.19
2023-02-13T14:40:05.347Z,101369.19
2023-02-13T14:42:34.681Z,101365.38
2023-02-13T14:45:05.287Z,101368.78
2023-02-13T14:47:39.750Z,101361.09
2023-02-13T14:50:08.898Z,101362.53
2023-02-13T14:52:38.825Z,101375.59
2023-02-13T14:55:09.862Z,101360.06
2023-02-13T14:57:40.299Z,101355.94
2023-02-13T15:00:10.514Z,101352.41
2023-02-13T15:02:45.031Z,101350.69
2023-02-13T15:05:15.464Z,101356.63
2023-02-13T15:07:48.504Z,101349.91
2023-02-13T15:10:28.700Z,101341.81
2023-02-13T15:12:58.544Z,101347.50
2023-02-13T15:15:28.327Z,101342.50
2023-02-13T15:18:00.588Z,101342.91
2023-02-13T15:20:30.420Z,101346.19
2023-02-13T15:22:58.761Z,101343.16
2023-02-13T15:25:30.688Z,101333.50
2023-02-13T15:27:59.932Z,101332.19
2023-02-13T15:30:29.167Z,101325.38
2023-02-13T15:33:00.098Z,101327.94
2023-02-13T15:35:31.032Z,101330.41
2023-02-13T15:37:59.295Z,101324.84
2023-02-13T15:40:28.368Z,101320.59
2023-02-13T15:42:57.098Z,101328.41
2023-02-13T15:45:27.583Z,101325.50
2023-02-13T15:47:56.710Z,101323.34
2023-02-13T15:50:29.721Z,101322.09
2023-02-13T15:52:57.920Z,101322.09
2023-02-13T15:55:27.129Z,101322.66
2023-02-13T15:57:57.117Z,101326.06
2023-02-13T16:00:26.575Z,101319.41
2023-02-13T16:02:56.081Z,101316.97
2023-02-13T16:05:39.025Z,101319.00
2023-02-13T16:08:29.392Z,101325.81
2023-02-13T16:11:20.866Z,101333.22
2023-02-13T16:14:10.585Z,101328.81
2023-02-13T16:16:45.072Z,101334.09
2023-02-13T16:19:31.103Z,101326.28
2023-02-13T16:22:01.155Z,101327.28
2023-02-13T16:24:31.154Z,101329.13
2023-02-13T16:26:59.281Z,101321.16
2023-02-13T16:29:28.584Z,101314.63
2023-02-13T16:32:04.459Z,101321.72
2023-02-13T16:34:33.123Z,101330.63
2023-02-13T16:37:01.208Z,101320.16
2023-02-13T16:39:31.718Z,101329.78
2023-02-13T16:42:00.240Z,101334.88
2023-02-13T16:44:30.056Z,101351.94
2023-02-13T16:46:59.370Z,101354.47
2023-02-13T16:49:28.720Z,101346.06
2023-02-13T16:51:58.692Z,101340.53
2023-02-13T16:54:29.195Z,101344.91
2023-02-13T16:57:00.378Z,101331.69
2023-02-13T16:59:37.241Z,101337.63
2023-02-13T17:02:16.345Z,101331.31
2023-02-13T17:04:45.242Z,101332.56
2023-02-13T17:07:14.506Z,101329.41
2023-02-13T17:09:42.644Z,101329.97
2023-02-13T17:12:25.181Z,101339.03
2023-02-13T17:14:53.446Z,101336.59
2023-02-13T17:17:22.839Z,101326.38
2023-02-13T17:19:52.562Z,101330.31
2023-02-13T17:22:30.331Z,101328.88
2023-02-13T17:24:58.636Z,101328.25
2023-02-13T17:27:28.301Z,101325.06
2023-02-13T17:29:56.472Z,101326.13
2023-02-13T17:32:26.056Z,101332.75
2023-02-13T17:34:54.629Z,101326.19
2023-02-13T17:37:24.258Z,101322.56
2023-02-13T17:39:52.613Z,101322.84
2023-02-13T17:42:22.903Z,101322.63
2023-02-13T17:44:52.611Z,101325.00
2023-02-13T17:47:21.683Z,101330.38
2023-02-13T17:49:50.083Z,101321.97
2023-02-13T17:52:19.197Z,101329.22
2023-02-13T17:54:47.906Z,101332.75
2023-02-13T17:57:16.722Z,101336.81
2023-02-13T17:59:45.132Z,101334.66
2023-02-13T18:02:16.386Z,101337.47
2023-02-13T18:04:45.050Z,101335.00
2023-02-13T18:07:13.950Z,101327.84
2023-02-13T18:09:42.782Z,101331.38
2023-02-13T18:12:14.352Z,101333.59
2023-02-13T18:14:43.683Z,101331.03
2023-02-13T18:17:13.590Z,101336.50
2023-02-13T18:19:43.517Z,101333.09
2023-02-13T18:22:12.117Z,101348.63
2023-02-13T18:24:41.636Z,101346.81
2023-02-13T18:27:11.287Z,101343.38
2023-02-13T18:29:40.159Z,101359.75
2023-02-13T18:32:10.385Z,101348.66
2023-02-13T18:34:38.858Z,101357.81
2023-02-13T18:37:08.859Z,101355.50
2023-02-13T18:39:37.490Z,101353.53
2023-02-13T18:42:05.829Z,101355.72
2023-02-13T18:44:34.053Z,101365.75
2023-02-13T18:47:02.280Z,101358.09
2023-02-13T18:49:30.453Z,101365.38
2023-02-13T18:51:58.570Z,101359.41
2023-02-13T18:54:28.094Z,101364.91
2023-02-13T18:56:56.554Z,101364.91
2023-02-13T18:59:25.001Z,101361.47
2023-02-13T19:01:53.098Z,101368.06
2023-02-13T19:04:21.232Z,101368.56
2023-02-13T19:06:49.629Z,101367.84
2023-02-13T19:09:17.748Z,101374.66
2023-02-13T19:11:48.609Z,101375.41
2023-02-13T19:14:16.865Z,101380.28
2023-02-13T19:16:45.088Z,101384.81
2023-02-13T19:19:13.349Z,101388.34
2023-02-13T19:21:45.457Z,101378.56
2023-02-13T19:24:15.958Z,101380.03
2023-02-13T19:26:45.120Z,101375.66
2023-02-13T19:29:14.648Z,101372.97
2023-02-13T19:31:43.636Z,101377.34
2023-02-13T19:34:13.951Z,101376.38
2023-02-13T19:36:46.406Z,101378.34
2023-02-13T19:39:15.723Z,101373.94
2023-02-13T19:41:44.699Z,101366.84
2023-02-13T19:44:20.733Z,101362.44
2023-02-13T19:46:50.445Z,101351.69
2023-02-13T19:49:24.412Z,101362.44
2023-02-13T19:51:58.047Z,101351.69
2023-02-13T19:54:32.887Z,101354.75
2023-02-13T19:57:05.825Z,101358.19
2023-02-13T19:59:36.348Z,101364.66
2023-02-13T20:02:10.706Z,101371.75
2023-02-13T20:04:45.179Z,101372.84
2023-02-13T20:07:19.395Z,101370.16
2023-02-13T20:09:50.505Z,101373.44
2023-02-13T20:12:18.926Z,101372.47
2023-02-13T20:14:53.977Z,101374.44
2023-02-13T20:17:26.138Z,101359.41
2023-02-13T20:20:01.410Z,101367.34
2023-02-13T20:22:32.202Z,101351.22
2023-02-13T20:25:05.162Z,101353.16
2023-02-13T20:27:43.430Z,101359.53
2023-02-13T20:30:21.634Z,101329.34
2023-02-13T20:32:52.937Z,101347.19
2023-02-13T20:35:21.594Z,101344.63
2023-02-13T20:37:54.174Z,101354.41
2023-02-13T20:40:27.099Z,101356.22
2023-02-13T20:43:03.151Z,101351.94
2023-02-13T20:45:38.715Z,101344.88
2023-02-13T20:48:10.250Z,101357.94
2023-02-13T20:50:42.619Z,101347.78
2023-02-13T20:53:17.148Z,101346.09
2023-02-13T20:55:50.896Z,101342.41
2023-02-13T20:58:23.711Z,101335.34
2023-02-13T21:01:00.917Z,101339.25
2023-02-13T21:03:30.730Z,101339.00
2023-02-13T21:06:03.400Z,101325.81
2023-02-13T21:08:35.929Z,101350.00
2023-02-13T21:11:09.798Z,101344.88
2023-02-13T21:13:44.552Z,101320.44
2023-02-13T21:16:22.990Z,101324.72
2023-02-13T21:18:58.475Z,101320.22
2023-02-13T21:21:28.540Z,101299.44
2023-02-13T21:24:00.374Z,101311.06
2023-02-13T21:26:32.643Z,101305.69
2023-02-13T21:29:02.771Z,101310.19
2023-02-13T21:31:33.964Z,101311.31
2023-02-13T21:34:03.664Z,101325.69
2023-02-13T21:36:32.558Z,101348.91
2023-02-13T21:39:03.570Z,101352.06
2023-02-13T21:41:34.683Z,101351.34
2023-02-13T21:44:03.136Z,101337.28
2023-02-13T21:46:34.030Z,101329.47
2023-02-13T21:49:03.769Z,101328.38
2023-02-13T21:51:33.065Z,101336.56
2023-02-13T21:54:01.935Z,101358.03
2023-02-13T21:56:30.922Z,101374.03
2023-02-13T21:58:59.435Z,101387.34
2023-02-13T22:01:29.627Z,101364.41
2023-02-13T22:04:01.309Z,101347.78
2023-02-13T22:06:30.206Z,101378.59
2023-02-13T22:08:58.841Z,101366.84
2023-02-13T22:11:27.888Z,101339.72
2023-02-13T22:13:57.133Z,101329.22
2023-02-13T22:16:30.100Z,101322.19
2023-02-13T22:19:02.608Z,101326.69
2023-02-13T22:21:34.683Z,101325.84
2023-02-13T22:24:06.438Z,101303.59
2023-02-13T22:26:36.032Z,101282.09
2023-02-13T22:29:08.734Z,101292.13
2023-02-13T22:31:39.178Z,101295.19
2023-02-13T22:34:15.309Z,101299.69
2023-02-13T22:36:46.307Z,101287.25
2023-02-13T22:39:14.425Z,101288.34
2023-02-13T22:41:45.715Z,101273.31
2023-02-13T22:44:14.216Z,101272.69
2023-02-13T22:46:42.594Z,101268.44
2023-02-13T22:49:13.642Z,101262.41
2023-02-13T22:51:41.818Z,101250.38
2023-02-13T22:54:12.392Z,101246.22
2023-02-13T22:56:44.349Z,101247.81
2023-02-13T22:59:14.511Z,101254.50
2023-02-13T23:01:42.890Z,101258.13
2023-02-13T23:04:12.810Z,101273.16
2023-02-13T23:06:41.000Z,101266.00
2023-02-13T23:09:10.010Z,101268.69
2023-02-13T23:11:56.994Z,101274.06
2023-02-13T23:14:26.090Z,101271.44
2023-02-13T23:17:11.532Z,101268.56
2023-02-13T23:19:41.605Z,101274.78
2023-02-13T23:22:12.419Z,101266.72
2023-02-13T23:24:40.961Z,101263.78
2023-02-13T23:27:09.247Z,101264.53
2023-02-13T23:29:38.677Z,101263.91
2023-02-13T23:32:07.571Z,101256.50
2023-02-13T23:34:37.158Z,101251.84
2023-02-13T23:37:07.570Z,101257.69
2023-02-13T23:39:35.680Z,101251.34
2023-02-13T23:42:03.999Z,101260.13
2023-02-13T23:44:32.253Z,101263.78
2023-02-13T23:47:00.304Z,101271.97
2023-02-13T23:49:28.379Z,101271.34
2023-02-13T23:51:57.924Z,101269.66
2023-02-13T23:54:29.080Z,101254.66
2023-02-13T23:56:57.298Z,101258.81
2023-02-13T23:59:25.735Z,101264.16
